createdAt,value
2018-10-18T00:00:26.450Z,0.00
2018-10-18T00:01:26.323Z,0.00
2018-10-18T00:02:26.194Z,0.00
2018-10-18T00:03:26.162Z,0.00
2018-10-18T00:04:25.940Z,0.00
2018-10-18T00:05:25.818Z,0.00
2018-10-18T00:06:25.688Z,0.00
2018-10-18T00:07:25.561Z,0.00
2018-10-18T00:08:25.433Z,0.00
2018-10-18T00:09:25.309Z,0.00
2018-10-18T00:10:25.178Z,0.00
2018-10-18T00:11:25.055Z,0.00
2018-10-18T00:12:24.927Z,0.00
2018-10-18T00:13:24.800Z,0.00
2018-10-18T00:14:24.673Z,0.00
2018-10-18T00:15:24.547Z,0.00
2018-10-18T00:16:24.419Z,0.00
2018-10-18T00:17:24.293Z,0.00
2018-10-18T00:18:24.169Z,0.00
2018-10-18T00:19:24.038Z,0.00
2018-10-18T00:20:23.914Z,0.00
2018-10-18T00:21:23.785Z,0.00
2018-10-18T00:22:23.661Z,0.00
2018-10-18T00:23:23.534Z,0.00
2018-10-18T00:24:23.406Z,0.00
2018-10-18T00:25:23.278Z,0.00
2018-10-18T00:26:23.151Z,0.00
2018-10-18T00:27:23.023Z,0.00
2018-10-18T00:28:22.900Z,0.00
2018-10-18T00:29:22.771Z,0.00
2018-10-18T00:30:22.644Z,0.00
2018-10-18T00:31:22.518Z,0.00
2018-10-18T00:32:22.394Z,0.00
2018-10-18T00:33:22.264Z,0.00
2018-10-18T00:34:22.139Z,0.00
2018-10-18T00:35:22.010Z,0.00
2018-10-18T00:36:21.885Z,0.00
2018-10-18T00:37:21.757Z,0.00
2018-10-18T00:38:21.630Z,0.00
2018-10-18T00:39:21.503Z,0.00
2018-10-18T00:40:21.379Z,0.00
2018-10-18T00:41:21.249Z,0.00
2018-10-18T00:42:21.124Z,0.00
2018-10-18T00:43:20.997Z,0.00
2018-10-18T00:44:20.871Z,0.00
2018-10-18T00:45:20.745Z,0.00
2018-10-18T00:46:20.620Z,0.00
2018-10-18T00:47:20.490Z,0.00
2018-10-18T00:48:20.365Z,0.00
2018-10-18T00:49:20.233Z,0.00
2018-10-18T00:50:20.114Z,0.00
2018-10-18T00:51:19.983Z,0.00
2018-10-18T00:52:19.854Z,0.00
2018-10-18T00:53:19.726Z,0.00
2018-10-18T00:54:19.607Z,0.00
2018-10-18T00:55:19.473Z,0.00
2018-10-18T00:56:19.345Z,0.00
2018-10-18T00:57:19.219Z,0.00
2018-10-18T00:58:19.094Z,0.00
2018-10-18T00:59:18.969Z,0.00
2018-10-18T01:00:18.917Z,0.00
2018-10-18T01:01:18.708Z,0.00
2018-10-18T01:02:18.668Z,0.00
2018-10-18T01:03:18.464Z,0.00
2018-10-18T01:04:18.330Z,0.00
2018-10-18T01:05:18.202Z,0.00
2018-10-18T01:06:18.109Z,0.00
2018-10-18T01:07:17.953Z,0.00
2018-10-18T01:08:17.902Z,0.00
2018-10-18T01:09:17.694Z,0.00
2018-10-18T01:10:17.569Z,0.00
2018-10-18T01:11:17.443Z,0.00
2018-10-18T01:12:17.488Z,0.00
2018-10-18T01:13:17.186Z,0.00
2018-10-18T01:14:17.167Z,0.00
2018-10-18T01:15:16.932Z,0.00
2018-10-18T01:16:16.805Z,0.00
2018-10-18T01:17:16.679Z,0.00
2018-10-18T01:18:16.687Z,0.00
2018-10-18T01:19:16.424Z,0.00
2018-10-18T01:20:16.424Z,0.00
2018-10-18T01:21:16.172Z,0.00
2018-10-18T01:22:16.045Z,0.00
2018-10-18T01:23:15.917Z,0.00
2018-10-18T01:24:15.869Z,0.00
2018-10-18T01:25:15.663Z,0.00
2018-10-18T01:26:15.566Z,0.00
2018-10-18T01:27:15.407Z,0.00
2018-10-18T01:28:15.281Z,0.00
2018-10-18T01:29:15.157Z,0.00
2018-10-18T01:30:15.199Z,0.00
2018-10-18T01:31:14.899Z,0.00
2018-10-18T01:32:14.854Z,0.00
2018-10-18T01:33:14.645Z,0.00
2018-10-18T01:34:14.524Z,0.00
2018-10-18T01:35:14.389Z,0.00
2018-10-18T01:36:14.410Z,0.00
2018-10-18T01:37:14.135Z,0.00
2018-10-18T01:38:14.083Z,0.00
2018-10-18T01:39:14.603Z,0.00
2018-10-18T01:40:13.756Z,0.00
2018-10-18T01:41:13.627Z,0.00
2018-10-18T01:42:13.567Z,0.00
2018-10-18T01:43:13.376Z,0.00
2018-10-18T01:44:13.311Z,0.00
2018-10-18T01:45:13.119Z,0.00
2018-10-18T01:46:12.992Z,0.00
2018-10-18T01:47:12.868Z,0.00
2018-10-18T01:48:12.919Z,0.00
2018-10-18T01:49:12.612Z,0.00
2018-10-18T01:50:12.570Z,0.00
2018-10-18T01:51:12.357Z,0.00
2018-10-18T01:52:12.230Z,0.00
2018-10-18T01:53:12.102Z,0.00
2018-10-18T01:54:12.067Z,0.00
2018-10-18T01:55:11.848Z,0.00
2018-10-18T01:56:11.904Z,0.00
2018-10-18T01:57:11.594Z,0.00
2018-10-18T01:58:11.471Z,0.00
2018-10-18T01:59:11.340Z,0.00
2018-10-18T02:00:11.298Z,0.00
2018-10-18T02:01:11.089Z,0.00
2018-10-18T02:02:11.069Z,0.00
2018-10-18T02:03:10.834Z,0.00
2018-10-18T02:04:10.707Z,0.00
2018-10-18T02:05:10.582Z,0.00
2018-10-18T02:06:10.531Z,0.00
2018-10-18T02:07:10.324Z,0.00
2018-10-18T02:08:10.621Z,0.00
2018-10-18T02:09:10.074Z,0.00
2018-10-18T02:10:09.962Z,0.00
2018-10-18T02:11:09.819Z,0.00
2018-10-18T02:12:09.766Z,0.00
2018-10-18T02:13:09.569Z,0.00
2018-10-18T02:14:09.436Z,0.00
2018-10-18T02:15:09.310Z,0.00
2018-10-18T02:16:09.186Z,0.00
2018-10-18T02:17:09.056Z,0.00
2018-10-18T02:18:09.014Z,0.00
2018-10-18T02:19:08.817Z,0.00
2018-10-18T02:20:08.674Z,0.00
2018-10-18T02:21:08.549Z,0.00
2018-10-18T02:22:08.420Z,0.00
2018-10-18T02:23:08.293Z,0.00
2018-10-18T02:24:08.254Z,0.00
2018-10-18T02:25:08.076Z,0.00
2018-10-18T02:26:07.913Z,0.00
2018-10-18T02:27:07.786Z,0.00
2018-10-18T02:28:07.659Z,0.00
2018-10-18T02:29:07.530Z,0.00
2018-10-18T02:30:07.502Z,0.00
2018-10-18T02:31:07.275Z,0.00
2018-10-18T02:32:07.153Z,0.00
2018-10-18T02:33:07.022Z,0.00
2018-10-18T02:34:06.895Z,0.00
2018-10-18T02:35:06.768Z,0.00
2018-10-18T02:36:06.736Z,0.00
2018-10-18T02:37:06.609Z,0.00
2018-10-18T02:38:06.386Z,0.00
2018-10-18T02:39:06.262Z,0.00
2018-10-18T02:40:06.134Z,0.00
2018-10-18T02:41:06.006Z,0.00
2018-10-18T02:42:05.915Z,0.00
2018-10-18T02:43:05.753Z,0.00
2018-10-18T02:44:05.625Z,0.00
2018-10-18T02:45:05.499Z,0.00
2018-10-18T02:46:05.369Z,0.00
2018-10-18T02:47:05.245Z,0.00
2018-10-18T02:48:05.148Z,0.00
2018-10-18T02:49:04.990Z,0.00
2018-10-18T02:50:04.862Z,0.00
2018-10-18T02:51:04.736Z,0.00
2018-10-18T02:52:04.615Z,0.00
2018-10-18T02:53:04.480Z,0.00
2018-10-18T02:54:04.406Z,0.00
2018-10-18T02:55:04.230Z,0.00
2018-10-18T02:56:04.102Z,0.00
2018-10-18T02:57:03.974Z,0.00
2018-10-18T02:58:03.848Z,0.00
2018-10-18T02:59:03.721Z,0.00
2018-10-18T03:00:03.629Z,0.00
2018-10-18T03:01:03.466Z,0.00
2018-10-18T03:02:03.340Z,0.00
2018-10-18T03:03:03.212Z,0.00
2018-10-18T03:04:03.086Z,0.00
2018-10-18T03:05:02.956Z,0.00
2018-10-18T03:06:02.847Z,0.00
2018-10-18T03:07:02.707Z,0.00
2018-10-18T03:08:02.576Z,0.00
2018-10-18T03:09:02.454Z,0.00
2018-10-18T03:10:02.323Z,0.00
2018-10-18T03:11:02.196Z,0.00
2018-10-18T03:12:02.093Z,0.00
2018-10-18T03:13:01.942Z,0.00
2018-10-18T03:14:01.817Z,0.00
2018-10-18T03:15:01.690Z,0.00
2018-10-18T03:16:01.728Z,0.00
2018-10-18T03:17:01.436Z,0.00
2018-10-18T03:18:01.334Z,0.00
2018-10-18T03:19:01.182Z,0.00
2018-10-18T03:20:01.055Z,0.00
2018-10-18T03:21:00.928Z,0.00
2018-10-18T03:22:00.801Z,0.00
2018-10-18T03:23:00.676Z,0.00
2018-10-18T03:24:00.595Z,0.00
2018-10-18T03:25:00.421Z,0.00
2018-10-18T03:26:00.295Z,0.00
2018-10-18T03:27:00.168Z,0.00
2018-10-18T03:28:00.040Z,0.00
2018-10-18T03:28:59.913Z,0.00
2018-10-18T03:29:59.823Z,0.00
2018-10-18T03:30:59.659Z,0.00
2018-10-18T03:31:59.534Z,0.00
2018-10-18T03:32:59.406Z,0.00
2018-10-18T03:33:59.279Z,0.00
2018-10-18T03:34:59.150Z,0.00
2018-10-18T03:35:59.036Z,0.00
2018-10-18T03:36:58.895Z,0.00
2018-10-18T03:37:58.771Z,0.00
2018-10-18T03:38:58.643Z,0.00
2018-10-18T03:39:58.518Z,0.00
2018-10-18T03:40:58.391Z,0.00
2018-10-18T03:41:58.328Z,0.00
2018-10-18T03:42:58.136Z,0.00
2018-10-18T03:43:58.013Z,0.00
2018-10-18T03:44:57.881Z,0.00
2018-10-18T03:45:57.756Z,0.00
2018-10-18T03:46:57.630Z,0.00
2018-10-18T03:47:57.563Z,0.00
2018-10-18T03:48:57.375Z,0.00
2018-10-18T03:49:57.248Z,0.00
2018-10-18T03:50:57.121Z,0.00
2018-10-18T03:51:56.994Z,0.00
2018-10-18T03:52:56.867Z,0.00
2018-10-18T03:53:56.780Z,0.00
2018-10-18T03:54:56.615Z,0.00
2018-10-18T03:55:56.488Z,0.00
2018-10-18T03:56:56.361Z,0.00
2018-10-18T03:57:56.233Z,0.00
2018-10-18T03:58:56.109Z,0.00
2018-10-18T03:59:56.041Z,0.00
2018-10-18T04:00:55.853Z,0.00
2018-10-18T04:01:55.726Z,0.00
2018-10-18T04:02:55.599Z,0.00
2018-10-18T04:03:55.472Z,0.00
2018-10-18T04:04:55.344Z,0.00
2018-10-18T04:05:55.227Z,0.00
2018-10-18T04:06:55.092Z,0.00
2018-10-18T04:07:54.974Z,0.00
2018-10-18T04:08:54.836Z,0.00
2018-10-18T04:09:54.709Z,0.00
2018-10-18T04:10:54.582Z,0.00
2018-10-18T04:11:54.469Z,0.00
2018-10-18T04:12:54.426Z,0.00
2018-10-18T04:13:54.200Z,0.00
2018-10-18T04:14:54.074Z,0.00
2018-10-18T04:15:53.947Z,0.00
2018-10-18T04:16:53.821Z,0.00
2018-10-18T04:17:53.827Z,0.00
2018-10-18T04:18:53.567Z,0.00
2018-10-18T04:19:53.439Z,0.00
2018-10-18T04:20:53.318Z,0.00
2018-10-18T04:21:53.184Z,0.00
2018-10-18T04:22:53.059Z,0.00
2018-10-18T04:23:52.963Z,0.00
2018-10-18T04:24:52.804Z,0.00
2018-10-18T04:25:52.681Z,0.00
2018-10-18T04:26:52.550Z,0.00
2018-10-18T04:27:52.425Z,0.00
2018-10-18T04:28:52.296Z,0.00
2018-10-18T04:29:52.192Z,0.00
2018-10-18T04:30:52.045Z,0.00
2018-10-18T04:31:51.918Z,0.00
2018-10-18T04:32:51.802Z,0.00
2018-10-18T04:33:52.668Z,0.00
2018-10-18T04:34:51.535Z,0.00
2018-10-18T04:35:51.411Z,0.00
2018-10-18T04:36:51.280Z,0.00
2018-10-18T04:37:51.174Z,0.00
2018-10-18T04:38:51.027Z,0.00
2018-10-18T04:39:50.901Z,0.00
2018-10-18T04:40:50.771Z,0.00
2018-10-18T04:41:50.648Z,0.00
2018-10-18T04:42:50.521Z,0.00
2018-10-18T04:43:50.396Z,0.00
2018-10-18T04:44:50.270Z,0.00
2018-10-18T04:45:50.138Z,0.00
2018-10-18T04:46:50.017Z,0.00
2018-10-18T04:47:50.007Z,0.00
2018-10-18T04:48:49.826Z,0.00
2018-10-18T04:49:49.631Z,0.00
2018-10-18T04:50:49.504Z,0.00
2018-10-18T04:51:49.380Z,0.00
2018-10-18T04:52:49.303Z,0.00
2018-10-18T04:53:49.136Z,0.00
2018-10-18T04:54:48.994Z,0.00
2018-10-18T04:55:48.869Z,0.00
2018-10-18T04:56:49.002Z,0.00
2018-10-18T04:57:48.617Z,0.00
2018-10-18T04:58:48.489Z,0.00
2018-10-18T04:59:48.364Z,0.00
2018-10-18T05:00:48.240Z,0.00
2018-10-18T05:01:48.108Z,0.00
2018-10-18T05:02:48.735Z,0.00
2018-10-18T05:03:47.855Z,0.00
2018-10-18T05:04:47.741Z,0.00
2018-10-18T05:05:47.600Z,0.00
2018-10-18T05:06:47.472Z,0.00
2018-10-18T05:07:47.352Z,0.00
2018-10-18T05:08:47.219Z,0.00
2018-10-18T05:09:47.093Z,0.00
2018-10-18T05:10:46.964Z,0.00
2018-10-18T05:11:46.838Z,0.00
2018-10-18T05:12:46.781Z,0.00
2018-10-18T05:13:46.582Z,0.00
2018-10-18T05:14:46.457Z,0.00
2018-10-18T05:15:46.332Z,0.00
2018-10-18T05:16:46.204Z,0.00
2018-10-18T05:17:46.076Z,0.00
2018-10-18T05:18:45.952Z,0.00
2018-10-18T05:19:45.824Z,0.00
2018-10-18T05:20:45.695Z,0.00
2018-10-18T05:21:45.571Z,4.00
2018-10-18T05:22:45.442Z,0.00
2018-10-18T05:23:45.340Z,4.00
2018-10-18T05:24:45.189Z,4.00
2018-10-18T05:25:45.063Z,4.00
2018-10-18T05:26:44.935Z,8.00
2018-10-18T05:27:44.809Z,4.00
2018-10-18T05:28:44.682Z,8.00
2018-10-18T05:29:44.554Z,8.00
2018-10-18T05:30:44.429Z,8.00
2018-10-18T05:31:44.705Z,12.00
2018-10-18T05:32:44.175Z,12.00
2018-10-18T05:33:44.045Z,16.00
2018-10-18T05:34:43.921Z,20.00
2018-10-18T05:35:43.792Z,20.00
2018-10-18T05:36:43.684Z,24.00
2018-10-18T05:37:43.638Z,28.00
2018-10-18T05:38:43.411Z,32.00
2018-10-18T05:39:43.294Z,32.00
2018-10-18T05:40:43.161Z,36.00
2018-10-18T05:41:43.029Z,44.00
2018-10-18T05:42:42.903Z,48.00
2018-10-18T05:43:42.779Z,52.00
2018-10-18T05:44:42.653Z,56.00
2018-10-18T05:45:42.524Z,60.00
2018-10-18T05:46:42.488Z,68.00
2018-10-18T05:47:42.269Z,76.00
2018-10-18T05:48:42.141Z,84.00
2018-10-18T05:49:42.016Z,92.00
2018-10-18T05:50:41.887Z,96.00
2018-10-18T05:51:41.761Z,104.00
2018-10-18T05:52:41.634Z,108.00
2018-10-18T05:53:41.570Z,116.00
2018-10-18T05:54:41.380Z,128.00
2018-10-18T05:55:41.255Z,140.00
2018-10-18T05:56:41.128Z,148.00
2018-10-18T05:57:40.999Z,160.00
2018-10-18T05:58:40.873Z,168.00
2018-10-18T05:59:40.749Z,172.00
2018-10-18T06:00:40.705Z,180.00
2018-10-18T06:01:40.495Z,184.00
2018-10-18T06:02:40.370Z,192.00
2018-10-18T06:03:40.240Z,200.00
2018-10-18T06:04:40.115Z,216.00
2018-10-18T06:05:39.987Z,228.00
2018-10-18T06:06:39.861Z,240.00
2018-10-18T06:07:39.735Z,256.00
2018-10-18T06:08:39.606Z,264.00
2018-10-18T06:09:39.482Z,268.00
2018-10-18T06:10:39.456Z,268.00
2018-10-18T06:11:39.282Z,268.00
2018-10-18T06:12:39.101Z,272.00
2018-10-18T06:13:38.975Z,272.00
2018-10-18T06:14:38.845Z,284.00
2018-10-18T06:15:38.720Z,292.00
2018-10-18T06:16:38.593Z,304.00
2018-10-18T06:17:38.467Z,312.00
2018-10-18T06:18:38.342Z,328.00
2018-10-18T06:19:38.212Z,356.00
2018-10-18T06:20:38.083Z,380.00
2018-10-18T06:21:37.957Z,404.00
2018-10-18T06:22:37.856Z,424.00
2018-10-18T06:23:37.714Z,440.00
2018-10-18T06:24:37.577Z,460.00
2018-10-18T06:25:37.452Z,480.00
2018-10-18T06:26:37.324Z,496.00
2018-10-18T06:27:37.198Z,516.00
2018-10-18T06:28:37.069Z,520.00
2018-10-18T06:29:36.943Z,536.00
2018-10-18T06:30:36.820Z,556.00
2018-10-18T06:31:36.691Z,576.00
2018-10-18T06:32:36.562Z,596.00
2018-10-18T06:33:36.436Z,608.00
2018-10-18T06:34:36.315Z,616.00
2018-10-18T06:35:36.185Z,628.00
2018-10-18T06:36:36.056Z,628.00
2018-10-18T06:37:35.974Z,628.00
2018-10-18T06:38:35.805Z,624.00
2018-10-18T06:39:35.679Z,616.00
2018-10-18T06:40:35.551Z,616.00
2018-10-18T06:41:35.428Z,632.00
2018-10-18T06:42:35.303Z,648.00
2018-10-18T06:43:35.174Z,660.00
2018-10-18T06:44:35.047Z,672.00
2018-10-18T06:45:34.921Z,672.00
2018-10-18T06:46:34.798Z,680.00
2018-10-18T06:47:34.780Z,700.00
2018-10-18T06:48:34.542Z,728.00
2018-10-18T06:49:34.457Z,772.00
2018-10-18T06:50:34.292Z,812.00
2018-10-18T06:51:34.165Z,848.00
2018-10-18T06:52:34.045Z,880.00
2018-10-18T06:53:33.915Z,908.00
2018-10-18T06:54:33.833Z,928.00
2018-10-18T06:55:33.661Z,952.00
2018-10-18T06:56:33.537Z,960.00
2018-10-18T06:57:33.406Z,964.00
2018-10-18T06:58:33.283Z,968.00
2018-10-18T06:59:33.155Z,964.00
2018-10-18T07:00:33.118Z,964.00
2018-10-18T07:01:32.904Z,968.00
2018-10-18T07:02:32.778Z,976.00
2018-10-18T07:03:32.655Z,980.00
2018-10-18T07:04:32.528Z,984.00
2018-10-18T07:05:32.402Z,984.00
2018-10-18T07:06:32.275Z,992.00
2018-10-18T07:07:32.153Z,996.00
2018-10-18T07:08:32.109Z,1000.00
2018-10-18T07:09:31.902Z,1016.00
2018-10-18T07:10:31.864Z,1044.00
2018-10-18T07:11:31.674Z,1084.00
2018-10-18T07:12:31.521Z,1112.00
2018-10-18T07:13:31.396Z,1136.00
2018-10-18T07:14:31.270Z,1160.00
2018-10-18T07:15:31.144Z,1172.00
2018-10-18T07:16:31.038Z,1188.00
2018-10-18T07:17:30.955Z,1196.00
2018-10-18T07:18:33.305Z,1204.00
2018-10-18T07:19:30.683Z,1232.00
2018-10-18T07:20:30.518Z,1256.00
2018-10-18T07:21:30.393Z,1260.00
2018-10-18T07:22:30.268Z,1276.00
2018-10-18T07:23:30.144Z,1332.00
2018-10-18T07:24:30.018Z,1332.00
2018-10-18T07:25:30.027Z,1384.00
2018-10-18T07:26:29.806Z,1412.00
2018-10-18T07:27:29.642Z,1464.00
2018-10-18T07:28:29.515Z,1536.00
2018-10-18T07:29:29.389Z,1588.00
2018-10-18T07:30:29.266Z,1596.00
2018-10-18T07:31:29.144Z,1572.00
2018-10-18T07:32:29.018Z,1552.00
2018-10-18T07:33:28.889Z,1572.00
2018-10-18T07:34:28.766Z,1592.00
2018-10-18T07:35:28.639Z,1588.00
2018-10-18T07:36:28.513Z,1584.00
2018-10-18T07:37:28.388Z,1640.00
2018-10-18T07:38:28.268Z,1668.00
2018-10-18T07:39:29.764Z,1668.00
2018-10-18T07:40:28.013Z,1652.00
2018-10-18T07:41:27.889Z,1648.00
2018-10-18T07:42:27.775Z,1656.00
2018-10-18T07:43:27.661Z,1616.00
2018-10-18T07:44:27.665Z,1592.00
2018-10-18T07:45:27.416Z,1564.00
2018-10-18T07:46:27.424Z,1552.00
2018-10-18T07:47:27.149Z,1540.00
2018-10-18T07:48:27.017Z,1540.00
2018-10-18T07:49:26.893Z,1584.00
2018-10-18T07:50:26.765Z,1596.00
2018-10-18T07:51:26.660Z,1660.00
2018-10-18T07:52:26.513Z,1696.00
2018-10-18T07:53:26.411Z,1740.00
2018-10-18T07:54:26.272Z,1800.00
2018-10-18T07:55:26.142Z,1808.00
2018-10-18T07:56:26.014Z,1780.00
2018-10-18T07:57:26.870Z,1780.00
2018-10-18T07:58:25.765Z,1784.00
2018-10-18T07:59:25.642Z,1816.00
2018-10-18T08:00:25.599Z,1812.00
2018-10-18T08:01:25.394Z,1804.00
2018-10-18T08:02:25.274Z,1812.00
2018-10-18T08:03:25.141Z,1828.00
2018-10-18T08:04:25.018Z,1896.00
2018-10-18T08:05:24.893Z,1952.00
2018-10-18T08:06:24.769Z,2012.00
2018-10-18T08:07:24.644Z,2024.00
2018-10-18T08:08:24.633Z,2064.00
2018-10-18T08:09:24.393Z,2108.00
2018-10-18T08:10:24.271Z,2172.00
2018-10-18T08:11:24.147Z,2228.00
2018-10-18T08:12:24.022Z,2268.00
2018-10-18T08:13:23.897Z,2300.00
2018-10-18T08:14:23.774Z,2388.00
2018-10-18T08:15:23.655Z,2368.00
2018-10-18T08:16:23.530Z,2424.00
2018-10-18T08:17:23.417Z,2444.00
2018-10-18T08:18:23.281Z,2432.00
2018-10-18T08:19:23.155Z,2412.00
2018-10-18T08:20:23.071Z,2420.00
2018-10-18T08:21:23.082Z,2388.00
2018-10-18T08:22:22.819Z,2408.00
2018-10-18T08:23:22.663Z,2456.00
2018-10-18T08:24:22.535Z,2456.00
2018-10-18T08:25:22.411Z,2468.00
2018-10-18T08:26:22.877Z,2464.00
2018-10-18T08:27:22.162Z,2460.00
2018-10-18T08:28:22.210Z,2392.00
2018-10-18T08:29:21.914Z,2380.00
2018-10-18T08:30:21.789Z,2384.00
2018-10-18T08:31:21.812Z,2412.00
2018-10-18T08:32:21.561Z,2436.00
2018-10-18T08:33:21.418Z,2456.00
2018-10-18T08:34:21.295Z,2456.00
2018-10-18T08:35:21.171Z,2468.00
2018-10-18T08:36:21.047Z,2460.00
2018-10-18T08:37:20.985Z,2468.00
2018-10-18T08:38:20.923Z,2448.00
2018-10-18T08:39:20.678Z,2452.00
2018-10-18T08:40:20.557Z,2496.00
2018-10-18T08:41:20.426Z,2520.00
2018-10-18T08:42:20.313Z,2524.00
2018-10-18T08:43:20.185Z,2572.00
2018-10-18T08:44:20.122Z,2632.00
2018-10-18T08:45:19.937Z,2684.00
2018-10-18T08:46:19.810Z,2712.00
2018-10-18T08:47:19.689Z,2724.00
2018-10-18T08:48:19.565Z,2712.00
2018-10-18T08:49:19.440Z,2732.00
2018-10-18T08:50:19.538Z,2756.00
2018-10-18T08:51:19.198Z,2856.00
2018-10-18T08:52:19.072Z,2840.00
2018-10-18T08:53:18.949Z,2796.00
2018-10-18T08:54:19.132Z,2776.00
2018-10-18T08:55:19.013Z,2784.00
2018-10-18T08:56:18.575Z,2824.00
2018-10-18T08:57:18.458Z,2776.00
2018-10-18T08:58:18.370Z,2728.00
2018-10-18T08:59:18.261Z,2372.00
2018-10-18T09:00:18.082Z,2536.00
2018-10-18T09:01:18.061Z,2476.00
2018-10-18T09:02:17.899Z,2468.00
2018-10-18T09:03:17.714Z,2424.00
2018-10-18T09:04:17.594Z,2532.00
2018-10-18T09:05:17.469Z,2632.00
2018-10-18T09:06:17.482Z,2572.00
2018-10-18T09:07:17.266Z,2476.00
2018-10-18T09:08:20.788Z,2428.00
2018-10-18T09:09:17.161Z,2372.00
2018-10-18T09:10:16.854Z,2340.00
2018-10-18T09:11:16.737Z,2356.00
2018-10-18T09:12:16.612Z,2456.00
2018-10-18T09:13:16.558Z,2528.00
2018-10-18T09:14:16.388Z,2508.00
2018-10-18T09:15:16.246Z,2480.00
2018-10-18T09:16:16.122Z,2440.00
2018-10-18T09:17:15.999Z,2412.00
2018-10-18T09:18:15.878Z,2468.00
2018-10-18T09:19:15.890Z,2452.00
2018-10-18T09:20:15.630Z,2500.00
2018-10-18T09:21:15.508Z,2556.00
2018-10-18T09:22:15.390Z,2572.00
2018-10-18T09:23:15.264Z,2560.00
2018-10-18T09:24:15.142Z,2540.00
2018-10-18T09:25:15.171Z,2476.00
2018-10-18T09:26:14.898Z,2536.00
2018-10-18T09:27:14.776Z,2488.00
2018-10-18T09:28:14.675Z,2556.00
2018-10-18T09:29:14.551Z,2580.00
2018-10-18T09:30:14.414Z,2572.00
2018-10-18T09:31:14.310Z,2672.00
2018-10-18T09:32:14.166Z,2560.00
2018-10-18T09:33:14.044Z,2548.00
2018-10-18T09:34:13.926Z,2544.00
2018-10-18T09:35:13.803Z,2488.00
2018-10-18T09:36:13.680Z,2508.00
2018-10-18T09:37:13.630Z,2488.00
2018-10-18T09:38:13.481Z,2528.00
2018-10-18T09:39:15.295Z,2568.00
2018-10-18T09:40:13.210Z,2600.00
2018-10-18T09:41:14.128Z,2524.00
2018-10-18T09:42:12.985Z,2696.00
2018-10-18T09:43:12.857Z,2752.00
2018-10-18T09:44:12.748Z,2708.00
2018-10-18T09:45:15.299Z,2676.00
2018-10-18T09:46:12.508Z,2684.00
2018-10-18T09:47:12.342Z,2644.00
2018-10-18T09:48:12.220Z,2668.00
2018-10-18T09:49:12.160Z,2504.00
2018-10-18T09:50:11.980Z,2548.00
2018-10-18T09:51:13.798Z,2572.00
2018-10-18T09:52:11.737Z,2560.00
2018-10-18T09:53:11.619Z,2568.00
2018-10-18T09:54:11.515Z,2548.00
2018-10-18T09:55:11.457Z,2596.00
2018-10-18T09:56:11.326Z,2664.00
2018-10-18T09:57:11.134Z,2772.00
2018-10-18T09:58:11.011Z,2720.00
2018-10-18T09:59:12.801Z,2772.00
2018-10-18T10:00:10.768Z,2872.00
2018-10-18T10:01:10.717Z,2872.00
2018-10-18T10:02:10.528Z,2876.00
2018-10-18T10:03:10.412Z,2796.00
2018-10-18T10:04:10.296Z,2832.00
2018-10-18T10:05:10.167Z,2884.00
2018-10-18T10:06:10.045Z,2828.00
2018-10-18T10:07:10.043Z,2828.00
2018-10-18T10:08:09.804Z,2860.00
2018-10-18T10:09:09.682Z,2860.00
2018-10-18T10:10:09.561Z,2924.00
2018-10-18T10:11:09.441Z,2920.00
2018-10-18T10:12:09.321Z,2780.00
2018-10-18T10:13:09.360Z,2828.00
2018-10-18T10:14:09.081Z,2772.00
2018-10-18T10:15:08.994Z,2852.00
2018-10-18T10:16:08.837Z,2900.00
2018-10-18T10:17:08.743Z,2948.00
2018-10-18T10:18:08.654Z,2992.00
2018-10-18T10:19:08.534Z,2912.00
2018-10-18T10:20:08.354Z,2772.00
2018-10-18T10:21:08.233Z,2868.00
2018-10-18T10:22:08.113Z,2888.00
2018-10-18T10:23:08.891Z,2996.00
2018-10-18T10:24:07.883Z,2980.00
2018-10-18T10:25:07.763Z,2916.00
2018-10-18T10:26:07.632Z,3124.00
2018-10-18T10:27:07.510Z,3116.00
2018-10-18T10:28:07.389Z,3136.00
2018-10-18T10:29:07.272Z,3240.00
2018-10-18T10:30:07.166Z,3260.00
2018-10-18T10:31:07.039Z,3156.00
2018-10-18T10:32:06.907Z,3220.00
2018-10-18T10:33:06.875Z,3316.00
2018-10-18T10:34:06.665Z,3316.00
2018-10-18T10:35:06.623Z,3256.00
2018-10-18T10:36:06.425Z,3284.00
2018-10-18T10:37:06.309Z,3232.00
2018-10-18T10:38:06.183Z,3244.00
2018-10-18T10:39:06.098Z,3132.00
2018-10-18T10:40:05.997Z,3080.00
2018-10-18T10:41:05.975Z,3108.00
2018-10-18T10:42:05.756Z,3148.00
2018-10-18T10:43:05.644Z,3116.00
2018-10-18T10:44:05.546Z,3088.00
2018-10-18T10:45:05.389Z,3108.00
2018-10-18T10:46:05.273Z,3180.00
2018-10-18T10:47:05.102Z,3208.00
2018-10-18T10:48:05.030Z,3256.00
2018-10-18T10:49:04.929Z,3320.00
2018-10-18T10:50:04.752Z,3332.00
2018-10-18T10:51:04.637Z,3328.00
2018-10-18T10:52:04.935Z,3324.00
2018-10-18T10:53:04.380Z,3432.00
2018-10-18T10:54:04.315Z,3400.00
2018-10-18T10:55:04.140Z,3332.00
2018-10-18T10:56:04.068Z,3276.00
2018-10-18T10:57:03.972Z,3156.00
2018-10-18T10:58:03.837Z,3088.00
2018-10-18T10:59:03.729Z,3140.00
2018-10-18T11:00:03.564Z,3168.00
2018-10-18T11:01:03.430Z,3128.00
2018-10-18T11:02:03.357Z,3068.00
2018-10-18T11:03:03.204Z,3084.00
2018-10-18T11:04:03.058Z,3120.00
2018-10-18T11:05:02.936Z,3188.00
2018-10-18T11:06:02.933Z,3216.00
2018-10-18T11:07:02.697Z,3268.00
2018-10-18T11:08:02.635Z,3328.00
2018-10-18T11:09:02.478Z,3308.00
2018-10-18T11:10:02.334Z,3420.00
2018-10-18T11:11:02.224Z,3368.00
2018-10-18T11:12:02.198Z,3392.00
2018-10-18T11:13:01.975Z,3352.00
2018-10-18T11:14:01.862Z,3428.00
2018-10-18T11:15:01.794Z,3440.00
2018-10-18T11:16:01.615Z,3436.00
2018-10-18T11:17:01.502Z,3376.00
2018-10-18T11:18:01.386Z,3320.00
2018-10-18T11:19:01.250Z,3324.00
2018-10-18T11:20:01.146Z,3320.00
2018-10-18T11:21:01.037Z,3352.00
2018-10-18T11:22:00.893Z,3420.00
2018-10-18T11:23:00.767Z,3384.00
2018-10-18T11:24:00.704Z,3408.00
2018-10-18T11:25:00.526Z,3476.00
2018-10-18T11:26:00.449Z,3552.00
2018-10-18T11:27:00.336Z,3516.00
2018-10-18T11:28:00.167Z,3524.00
2018-10-18T11:29:00.047Z,3580.00
2018-10-18T11:29:59.948Z,3604.00
2018-10-18T11:30:59.807Z,3664.00
2018-10-18T11:31:59.698Z,3724.00
2018-10-18T11:32:59.597Z,3732.00
2018-10-18T11:33:59.450Z,3804.00
2018-10-18T11:34:59.327Z,3816.00
2018-10-18T11:35:59.244Z,3780.00
2018-10-18T11:36:59.085Z,3792.00
2018-10-18T11:37:59.032Z,3796.00
2018-10-18T11:38:58.846Z,3772.00
2018-10-18T11:39:58.725Z,3812.00
2018-10-18T11:40:58.603Z,3860.00
2018-10-18T11:41:58.488Z,3940.00
2018-10-18T11:42:58.372Z,3908.00
2018-10-18T11:43:58.253Z,3944.00
2018-10-18T11:44:58.124Z,4028.00
2018-10-18T11:45:58.005Z,4100.00
2018-10-18T11:46:57.886Z,4152.00
2018-10-18T11:47:57.824Z,4168.00
2018-10-18T11:48:57.644Z,4212.00
2018-10-18T11:49:57.551Z,4308.00
2018-10-18T11:50:57.406Z,4344.00
2018-10-18T11:51:57.321Z,4392.00
2018-10-18T11:52:57.164Z,4400.00
2018-10-18T11:53:57.071Z,4420.00
2018-10-18T11:54:56.922Z,4452.00
2018-10-18T11:55:56.837Z,4440.00
2018-10-18T11:56:56.685Z,4600.00
2018-10-18T11:57:56.564Z,4680.00
2018-10-18T11:58:56.483Z,4652.00
2018-10-18T11:59:56.323Z,4576.00
2018-10-18T12:00:56.202Z,4568.00
2018-10-18T12:01:56.135Z,4484.00
2018-10-18T12:02:55.963Z,4464.00
2018-10-18T12:03:55.847Z,4536.00
2018-10-18T12:04:55.777Z,4572.00
2018-10-18T12:05:55.601Z,4612.00
2018-10-18T12:06:55.482Z,4600.00
2018-10-18T12:07:55.406Z,4580.00
2018-10-18T12:08:55.239Z,4556.00
2018-10-18T12:09:55.120Z,4532.00
2018-10-18T12:10:55.029Z,4488.00
2018-10-18T12:11:54.879Z,4500.00
2018-10-18T12:12:54.760Z,4520.00
2018-10-18T12:13:54.671Z,4548.00
2018-10-18T12:14:54.521Z,4528.00
2018-10-18T12:15:54.402Z,4508.00
2018-10-18T12:16:54.304Z,4560.00
2018-10-18T12:17:54.163Z,4592.00
2018-10-18T12:18:54.052Z,4692.00
2018-10-18T12:19:53.921Z,4740.00
2018-10-18T12:20:53.803Z,4824.00
2018-10-18T12:21:53.685Z,4832.00
2018-10-18T12:22:53.578Z,4848.00
2018-10-18T12:23:53.444Z,4888.00
2018-10-18T12:24:53.321Z,4936.00
2018-10-18T12:25:53.214Z,4968.00
2018-10-18T12:26:53.160Z,4980.00
2018-10-18T12:27:52.959Z,4908.00
2018-10-18T12:28:52.866Z,4832.00
2018-10-18T12:29:52.722Z,4800.00
2018-10-18T12:30:52.601Z,4792.00
2018-10-18T12:31:52.483Z,4840.00
2018-10-18T12:32:52.359Z,4860.00
2018-10-18T12:33:52.239Z,4840.00
2018-10-18T12:34:52.168Z,4876.00
2018-10-18T12:35:52.008Z,4876.00
2018-10-18T12:36:51.882Z,4916.00
2018-10-18T12:37:51.785Z,4964.00